Litchfield, MN

9:55 AM CST on February 28, 2015 (GMT -0600)
RAWS LITCHFIELD MN US | Change Station
CLOSE
Current Station
Personal Weather Station
Location: Litchfield, MN
Elevation: 1076 ft
Nearby Weather Stations

Elev 1076 ft 45.07 °N, 94.53 °W | Updated 44 minutes ago

Clear
Clear
5 °F
Feels Like -10 °F
N
11
Wind Variable Wind from South
Gusts 17.0 mph

Today
High -- | Low -- °F
--% Chance of Precip.
Yesterday
High -- | Low -- °F
Precip. -- in
6:58 AM 6:03 PM
Waxing Gibbous, 78% visible
Pressure 30.43 in
Visibility 10.0 miles
Clouds Clear
Windchill -10 °F
Dew Point -3 °F
Humidity 69%
Rainfall 0.00 in
Snow Depth Not available.
UV 2 out of 12
Pollen .40 out of 12
Air Quality Not available.
Flu Activity Not available.
METAR KLJF 281532Z AUTO 00000KT 10SM CLR M13/M18 A3043 RMK AO2

More Conditions Fewer Conditions

Pressure 30.43 in
Visibility 10.0 miles
Clouds Clear
Windchill -10 °F
Dew Point -3 °F
Humidity 69%
Rainfall 0.00 in
Snow Depth Not available.
UV 2 out of 12
Pollen .40 out of 12
Air Quality Not available.
Flu Activity Not available.
METAR KLJF 281532Z AUTO 00000KT 10SM CLR M13/M18 A3043 RMK AO2

More Conditions Fewer Conditions

10-Day Weather Forecast

Almanac

Astronomy

Feb. 28, 2015 Rise Set
Actual Time
Civil Twilight
Nautical Twilight
Astronomical Twilight
Moon
Length of Visible Light
Length of Day
Tomorrow will be .
, % of the Moon is Illuminated

Today's Extremes

State Highs State Lows

Community

WunderPhotos

Upload Photos

1,801,055 photos uploaded!

WunderBlogs® & News

Nearby

Air Quality

  Air Quality AQ Index Pollutant
Not available.

Snow Depth

Station Depth Elevation

Earthquake Activity

City Distance Mag. Time & Date
Minimum magnitude displayed is 2.5.

Coastal Water Temperatures

Place Temperature

Nearby Weather Stations